Time;durP1;ratioP1;P1;durP2;ratioP2;P2;SDS_P1;SDS_P2;PMS_P1;PMS_P2;Temp;Humidity;BMP_temperature;BMP_pressure;BME280_temperature;BME280_humidity;BME280_pressure;Samples;Min_cycle;Max_cycle;Signal;HPM_P1;HPM_P2
2024/01/02 00:01:36;;;;;;;1999.90;999.90;;;8.50;99.90;;;;;;5013933;28;20199;-73
2024/01/02 00:04:02;;;;;;;1999.90;999.90;;;8.60;99.90;;;;;;5014048;28;20174;-72
2024/01/02 00:06:27;;;;;;;1999.90;999.90;;;8.70;99.90;;;;;;5014156;28;20428;-73
2024/01/02 00:08:53;;;;;;;1999.90;999.90;;;;;;;;;;5013980;28;20752;-73
2024/01/02 00:11:20;;;;;;;1999.90;999.90;;;8.60;99.90;;;;;;5028787;23;20243;-73
2024/01/02 00:13:45;;;;;;;1999.90;999.90;;;8.60;99.90;;;;;;5013609;28;20410;-73
2024/01/02 00:16:11;;;;;;;1999.90;999.90;;;8.70;99.90;;;;;;5013854;28;20443;-74
2024/01/02 00:18:37;;;;;;;1999.90;999.90;;;8.70;99.90;;;;;;5014274;28;20206;-73
2024/01/02 00:21:03;;;;;;;1999.90;999.90;;;8.60;99.90;;;;;;5013589;28;20198;-74
2024/01/02 00:23:29;;;;;;;1999.90;999.90;;;8.60;99.90;;;;;;5012327;28;20519;-73
2024/01/02 00:25:54;;;;;;;1999.90;999.90;;;8.50;99.90;;;;;;5029011;28;20427;-73
2024/01/02 00:28:20;;;;;;;1999.90;999.90;;;8.60;99.90;;;;;;5029049;28;20409;-73
2024/01/02 00:30:46;;;;;;;1999.90;999.90;;;8.50;99.90;;;;;;5028904;28;20674;-73
2024/01/02 00:33:12;;;;;;;1999.90;999.90;;;8.60;99.90;;;;;;5013553;28;20581;-74
2024/01/02 00:35:37;;;;;;;1999.90;999.90;;;8.50;99.90;;;;;;5013677;28;20169;-73
2024/01/02 00:38:03;;;;;;;1999.90;999.90;;;8.50;99.90;;;;;;5013727;28;20209;-73
2024/01/02 00:40:30;;;;;;;1999.90;999.90;;;8.40;99.90;;;;;;5013473;28;20790;-73
2024/01/02 00:42:56;;;;;;;1999.90;999.90;;;8.50;99.90;;;;;;5013482;28;20401;-73
2024/01/02 00:45:21;;;;;;;1999.90;999.90;;;8.40;99.90;;;;;;5013479;28;20405;-73
2024/01/02 00:47:47;;;;;;;1999.90;999.90;;;8.50;99.90;;;;;;5013453;28;20397;-74
2024/01/02 00:50:13;;;;;;;1999.90;999.90;;;8.60;99.90;;;;;;5013522;28;20168;-74
2024/01/02 00:52:38;;;;;;;1999.90;999.90;;;8.30;99.90;;;;;;5013157;28;20263;-74
2024/01/02 00:55:05;;;;;;;1999.90;999.90;;;8.50;99.90;;;;;;5013287;28;20171;-74
2024/01/02 00:57:31;;;;;;;1999.90;999.90;;;8.50;99.90;;;;;;5013262;28;20172;-74
2024/01/02 00:59:58;;;;;;;1999.90;999.90;;;8.50;99.90;;;;;;5011994;28;20763;-74
2024/01/02 01:02:24;;;;;;;1999.90;999.90;;;8.40;99.90;;;;;;5012815;28;20460;-73
2024/01/02 01:04:50;;;;;;;1999.90;999.90;;;8.40;99.90;;;;;;5013142;28;20412;-73
2024/01/02 01:07:16;;;;;;;1999.90;999.90;;;8.40;99.90;;;;;;5013070;28;20605;-74
2024/01/02 01:09:41;;;;;;;1999.90;999.90;;;8.40;99.90;;;;;;5013043;28;20174;-73
2024/01/02 01:12:08;;;;;;;1999.90;999.90;;;8.40;99.90;;;;;;5012551;28;20541;-74
2024/01/02 01:14:34;;;;;;;1999.90;999.90;;;8.50;99.90;;;;;;5013024;28;20189;-74
2024/01/02 01:17:00;;;;;;;1999.90;999.90;;;8.30;99.90;;;;;;5012889;28;20408;-73
2024/01/02 01:19:26;;;;;;;1999.90;999.90;;;8.30;99.90;;;;;;5012871;28;20408;-74
2024/01/02 01:21:51;;;;;;;1999.90;999.90;;;8.30;99.90;;;;;;5012496;28;20614;-73
2024/01/02 01:24:18;;;;;;;1999.90;999.90;;;8.40;99.90;;;;;;5012239;28;20496;-74
2024/01/02 01:26:44;;;;;;;1999.90;999.90;;;8.10;99.90;;;;;;5012706;28;20177;-73
2024/01/02 01:29:12;;;;;;;1999.90;999.90;;;8.30;99.90;;;;;;5012686;28;20416;-72
2024/01/02 01:31:38;;;;;;;1999.90;999.90;;;8.20;99.90;;;;;;5012610;28;20469;-73
2024/01/02 01:34:04;;;;;;;1999.90;999.90;;;8.10;99.90;;;;;;5027706;28;20924;-74
2024/01/02 01:36:30;;;;;;;1999.90;999.90;;;8.10;99.90;;;;;;5012577;28;20277;-73
2024/01/02 01:38:55;;;;;;;1999.90;999.90;;;8.10;99.90;;;;;;5012511;28;20192;-74
2024/01/02 01:41:21;;;;;;;1999.90;999.90;;;7.80;99.90;;;;;;5027557;28;20219;-74
2024/01/02 01:43:47;;;;;;;1999.90;999.90;;;7.90;99.90;;;;;;5012310;28;20185;-74
2024/01/02 01:46:14;;;;;;;1999.90;999.90;;;8.00;99.90;;;;;;5012496;28;20162;-74
2024/01/02 01:48:40;;;;;;;1999.90;999.90;;;8.00;99.90;;;;;;5012433;28;20169;-73
2024/01/02 01:51:07;;;;;;;1999.90;999.90;;;7.90;99.90;;;;;;5012319;28;20923;-73
2024/01/02 01:53:33;;;;;;;1999.90;999.90;;;8.20;99.90;;;;;;5012207;28;20907;-74
2024/01/02 01:55:59;;;;;;;1999.90;999.90;;;8.10;99.90;;;;;;5012274;28;20423;-75
2024/01/02 01:58:26;;;;;;;1999.90;999.90;;;7.90;99.90;;;;;;5027466;28;20413;-73
2024/01/02 02:00:51;;;;;;;1999.90;999.90;;;7.90;99.90;;;;;;5027238;28;20475;-74
2024/01/02 02:03:18;;;;;;;1999.90;999.90;;;7.90;99.90;;;;;;5012168;28;20409;-73
2024/01/02 02:05:45;;;;;;;1999.90;999.90;;;7.80;99.90;;;;;;5012213;28;20475;-73
2024/01/02 02:08:11;;;;;;;1999.90;999.90;;;7.80;99.90;;;;;;5012181;28;20439;-74
2024/01/02 02:10:37;;;;;;;1999.90;999.90;;;8.00;99.90;;;;;;5011904;28;20434;-74
2024/01/02 02:13:02;;;;;;;1999.90;999.90;;;7.60;99.90;;;;;;5012046;28;20167;-73
2024/01/02 02:15:28;;;;;;;1999.90;999.90;;;7.70;99.90;;;;;;5012148;28;20979;-73
2024/01/02 02:17:54;;;;;;;1999.90;999.90;;;7.40;99.90;;;;;;5012127;28;20412;-73
2024/01/02 02:20:20;;;;;;;1999.90;999.90;;;7.30;99.90;;;;;;5012022;28;20185;-74
2024/01/02 02:22:52;;;;;;;1999.90;999.90;;;7.80;99.90;;;;;;5011804;28;20409;-75
2024/01/02 02:25:18;;;;;;;1999.90;999.90;;;7.60;99.90;;;;;;5012036;28;20197;-73
2024/01/02 02:27:45;;;;;;;1999.90;999.90;;;7.50;99.90;;;;;;5012090;28;20412;-74
2024/01/02 02:30:12;;;;;;;1999.90;999.90;;;7.60;99.90;;;;;;5012000;28;20415;-73
2024/01/02 02:32:37;;;;;;;1999.90;999.90;;;7.50;99.90;;;;;;5011656;28;20471;-73
2024/01/02 02:35:08;;;;;;;1999.90;999.90;;;7.30;99.90;;;;;;5013137;28;20436;-74
2024/01/02 02:37:34;;;;;;;1999.90;999.90;;;7.50;99.90;;;;;;5015893;28;20200;-74
2024/01/02 02:39:59;;;;;;;1999.90;999.90;;;7.50;99.90;;;;;;5015789;28;20899;-74
2024/01/02 02:42:25;;;;;;;1999.90;999.90;;;7.30;99.90;;;;;;5015474;28;20469;-73
2024/01/02 02:44:50;;;;;;;1999.90;999.90;;;7.50;99.90;;;;;;5030932;28;20292;-74
2024/01/02 02:47:16;;;;;;;1999.90;999.90;;;7.50;99.90;;;;;;5015685;28;20636;-73
2024/01/02 02:49:42;;;;;;;1999.90;999.90;;;7.70;99.90;;;;;;5015717;28;20196;-74
2024/01/02 02:52:08;;;;;;;1999.90;999.90;;;7.50;99.90;;;;;;5015280;28;20323;-74
2024/01/02 02:54:34;;;;;;;1999.90;999.90;;;7.50;99.90;;;;;;5015570;28;20965;-73
2024/01/02 02:57:00;;;;;;;1999.90;999.90;;;7.50;99.90;;;;;;5015595;28;20494;-73
2024/01/02 02:59:25;;;;;;;1999.90;999.90;;;7.50;99.90;;;;;;5015491;28;20634;-74
2024/01/02 03:01:51;;;;;;;1999.90;999.90;;;7.50;99.90;;;;;;5015046;28;20211;-73
2024/01/02 03:04:16;;;;;;;1999.90;999.90;;;7.90;99.90;;;;;;5030666;28;20244;-75
2024/01/02 03:06:42;;;;;;;1999.90;999.90;;;7.50;99.90;;;;;;5015373;28;20205;-73
2024/01/02 03:09:08;;;;;;;1999.90;999.90;;;7.60;99.90;;;;;;5015315;28;20257;-74
2024/01/02 03:11:33;;;;;;;1999.90;999.90;;;7.60;99.90;;;;;;5014939;28;20216;-73
2024/01/02 03:13:59;;;;;;;1999.90;999.90;;;7.80;99.90;;;;;;5015225;28;20251;-74
2024/01/02 03:16:24;;;;;;;1999.90;999.90;;;7.70;99.90;;;;;;5015308;28;20201;-74
2024/01/02 03:18:50;;;;;;;1999.90;999.90;;;7.70;99.90;;;;;;5015230;28;20177;-75
2024/01/02 03:21:16;;;;;;;1999.90;999.90;;;7.90;99.90;;;;;;5014834;28;20201;-74
2024/01/02 03:23:42;;;;;;;1999.90;999.90;;;7.80;99.90;;;;;;5015020;28;20753;-74
2024/01/02 03:26:11;;;;;;;1999.90;999.90;;;7.80;99.90;;;;;;5014924;28;20189;-75
2024/01/02 03:28:37;;;;;;;1999.90;999.90;;;7.80;99.90;;;;;;5015061;28;20544;-74
2024/01/02 03:31:05;;;;;;;1999.90;999.90;;;7.60;99.90;;;;;;5014952;28;20439;-75
2024/01/02 03:33:31;;;;;;;1999.90;999.90;;;7.80;99.90;;;;;;5014704;28;20172;-74
2024/01/02 03:35:57;;;;;;;1999.90;999.90;;;7.60;99.90;;;;;;5014926;28;21074;-73
2024/01/02 03:38:23;;;;;;;1999.90;999.90;;;7.80;99.90;;;;;;5014807;28;20412;-75
2024/01/02 03:40:48;;;;;;;1999.90;999.90;;;7.80;99.90;;;;;;5014671;28;20205;-73
2024/01/02 03:43:14;;;;;;;1999.90;999.90;;;7.90;99.90;;;;;;5014470;28;20247;-74
2024/01/02 03:45:40;;;;;;;1999.90;999.90;;;7.90;99.90;;;;;;5014061;28;20543;-74
2024/01/02 03:48:06;;;;;;;1999.90;999.90;;;8.00;99.90;;;;;;5029821;28;20640;-74
2024/01/02 03:50:31;;;;;;;1999.90;999.90;;;8.10;99.90;;;;;;5014325;28;20177;-73
2024/01/02 03:52:57;;;;;;;1999.90;999.90;;;8.10;99.90;;;;;;5014342;28;20414;-74
2024/01/02 03:55:23;;;;;;;1999.90;999.90;;;8.00;99.90;;;;;;5014487;28;20166;-74
2024/01/02 03:57:48;;;;;;;1999.90;999.90;;;8.20;99.90;;;;;;5014495;28;20405;-74
2024/01/02 04:00:14;;;;;;;1999.90;999.90;;;8.40;99.90;;;;;;5014333;28;20176;-75
2024/01/02 04:02:40;;;;;;;1999.90;999.90;;;8.20;99.90;;;;;;5014128;28;20193;-73
2024/01/02 04:05:07;;;;;;;1999.90;999.90;;;8.30;99.90;;;;;;5014092;28;20166;-75
2024/01/02 04:07:32;;;;;;;1999.90;999.90;;;8.30;99.90;;;;;;5014257;28;20169;-74
2024/01/02 04:09:58;;;;;;;1999.90;999.90;;;8.40;99.90;;;;;;5029411;28;20420;-75
2024/01/02 04:12:24;;;;;;;1999.90;999.90;;;8.40;99.90;;;;;;5013871;28;20791;-74
2024/01/02 04:14:50;;;;;;;1999.90;999.90;;;8.50;99.90;;;;;;5014140;28;20414;-74
2024/01/02 04:17:15;;;;;;;1999.90;999.90;;;8.50;99.90;;;;;;5014099;28;20828;-75
2024/01/02 04:19:41;;;;;;;1999.90;999.90;;;8.50;99.90;;;;;;5013876;28;20177;-75
2024/01/02 04:22:06;;;;;;;1999.90;999.90;;;8.50;99.90;;;;;;5013646;28;20210;-74
2024/01/02 04:24:32;;;;;;;1999.90;999.90;;;8.60;99.90;;;;;;5029148;28;20270;-73
2024/01/02 04:26:58;;;;;;;1999.90;999.90;;;8.60;99.90;;;;;;5013907;28;20170;-73
2024/01/02 04:29:24;;;;;;;1999.90;999.90;;;8.70;99.90;;;;;;5013898;28;20406;-73
2024/01/02 04:31:50;;;;;;;1999.90;999.90;;;8.80;99.90;;;;;;5013547;28;20444;-74
2024/01/02 04:34:15;;;;;;;1999.90;999.90;;;8.70;99.90;;;;;;5013600;28;20185;-75
2024/01/02 04:36:44;;;;;;;1999.90;999.90;;;9.00;99.90;;;;;;5028827;28;20181;-75
2024/01/02 04:39:10;;;;;;;1999.90;999.90;;;9.00;99.90;;;;;;5013752;28;20174;-74
2024/01/02 04:41:36;;;;;;;1999.90;999.90;;;9.10;99.90;;;;;;5013279;28;20976;-74
2024/01/02 04:44:01;;;;;;;1999.90;999.90;;;9.20;99.90;;;;;;5013727;28;20409;-74
2024/01/02 04:46:27;;;;;;;1999.90;999.90;;;9.30;99.90;;;;;;5013552;28;20192;-74
2024/01/02 04:48:54;;;;;;;1999.90;999.90;;;9.40;99.90;;;;;;5013603;28;20214;-74
2024/01/02 04:51:21;;;;;;;1999.90;999.90;;;9.50;99.90;;;;;;5013536;28;20434;-73
2024/01/02 04:53:47;;;;;;;1999.90;999.90;;;9.60;99.90;;;;;;5013313;28;20782;-75
2024/01/02 04:56:13;;;;;;;1999.90;999.90;;;9.70;99.90;;;;;;5013347;28;20410;-75
2024/01/02 04:58:38;;;;;;;1999.90;999.90;;;9.70;99.90;;;;;;5012474;28;20688;-73
2024/01/02 05:01:05;;;;;;;1999.90;999.90;;;9.80;99.90;;;;;;5013158;28;20281;-73
2024/01/02 05:03:30;;;;;;;1999.90;999.90;;;9.90;99.90;;;;;;5012830;28;20890;-74
2024/01/02 05:05:56;;;;;;;1999.90;999.90;;;10.10;99.90;;;;;;5013189;28;20408;-74
2024/01/02 05:08:21;;;;;;;1999.90;999.90;;;10.20;99.90;;;;;;5013020;28;20549;-73
2024/01/02 05:10:47;;;;;;;1999.90;999.90;;;10.40;99.90;;;;;;5012794;28;20208;-73
2024/01/02 05:13:13;;;;;;;1999.90;999.90;;;10.50;99.90;;;;;;5012876;28;20640;-73
2024/01/02 05:15:39;;;;;;;1999.90;999.90;;;10.50;99.90;;;;;;5013012;28;20176;-73
2024/01/02 05:18:04;;;;;;;1999.90;999.90;;;10.50;99.90;;;;;;5012873;28;20192;-74
2024/01/02 05:20:30;;;;;;;1999.90;999.90;;;10.60;99.90;;;;;;5012734;28;20314;-73
2024/01/02 05:22:59;;;;;;;1999.90;999.90;;;10.50;99.90;;;;;;5012650;28;20164;-74
2024/01/02 05:25:25;;;;;;;1999.90;999.90;;;10.60;99.90;;;;;;5012775;28;20172;-73
2024/01/02 05:27:50;;;;;;;1999.90;999.90;;;10.60;99.90;;;;;;5012771;28;20407;-74
2024/01/02 05:30:16;;;;;;;1999.90;999.90;;;10.60;99.90;;;;;;5012703;28;20176;-73
2024/01/02 05:32:42;;;;;;;1999.90;999.90;;;10.70;99.90;;;;;;5012388;28;20185;-74
2024/01/02 05:35:07;;;;;;;1999.90;999.90;;;10.80;99.90;;;;;;5012659;28;20173;-74
2024/01/02 05:37:33;;;;;;;1999.90;999.90;;;10.80;99.90;;;;;;5012667;28;20206;-74
2024/01/02 05:39:59;;;;;;;1999.90;999.90;;;10.90;99.90;;;;;;5012768;28;20183;-74
2024/01/02 05:42:24;;;;;;;1999.90;999.90;;;10.90;99.90;;;;;;5012171;28;20216;-74
2024/01/02 05:44:50;;;;;;;1999.90;999.90;;;11.00;99.90;;;;;;5027687;28;20249;-73
2024/01/02 05:47:15;;;;;;;1999.90;999.90;;;11.10;99.90;;;;;;5012366;28;20649;-73
2024/01/02 05:49:41;;;;;;;1999.90;999.90;;;11.10;99.90;;;;;;5012515;28;20219;-74
2024/01/02 05:52:07;;;;;;;1999.90;999.90;;;11.10;99.90;;;;;;5012238;28;20677;-74
2024/01/02 05:54:33;;;;;;;1999.90;999.90;;;11.20;99.90;;;;;;5027646;28;20248;-74
2024/01/02 05:56:59;;;;;;;1999.90;999.90;;;11.20;99.90;;;;;;5012386;28;20179;-73
2024/01/02 05:59:24;;;;;;;1999.90;999.90;;;11.20;99.90;;;;;;5012338;28;20899;-73
2024/01/02 06:01:50;;;;;;;1999.90;999.90;;;11.20;99.90;;;;;;5011860;28;20577;-71
2024/01/02 06:04:16;;;;;;;1999.90;999.90;;;11.30;99.90;;;;;;5012142;28;20223;-72
2024/01/02 06:06:41;;;;;;;1999.90;999.90;;;11.30;99.90;;;;;;5012168;28;20833;-72
2024/01/02 06:09:07;;;;;;;1999.90;999.90;;;11.40;99.90;;;;;;5012020;28;20173;-73
2024/01/02 06:11:33;;;;;;;1999.90;999.90;;;11.40;99.90;;;;;;5019664;23;20233;-74
2024/01/02 06:13:58;;;;;;;1999.90;999.90;;;11.90;99.90;;;;;;4988478;28;20691;-74
2024/01/02 06:16:24;;;;;;;1999.90;999.90;;;11.40;99.90;;;;;;4992134;28;20181;-74
2024/01/02 06:18:49;;;;;;;1999.90;999.90;;;11.40;99.90;;;;;;4992358;28;20178;-74
2024/01/02 06:21:15;;;;;;;1999.90;999.90;;;11.40;99.90;;;;;;4992108;28;20216;-74
2024/01/02 06:23:41;;;;;;;1999.90;999.90;;;11.40;99.90;;;;;;4991888;28;20696;-74
2024/01/02 06:26:06;;;;;;;1999.90;999.90;;;11.40;99.90;;;;;;4992223;28;20503;-74
2024/01/02 06:28:32;;;;;;;1999.90;999.90;;;11.50;99.90;;;;;;4992074;28;20208;-74
2024/01/02 06:30:58;;;;;;;1999.90;999.90;;;11.50;99.90;;;;;;4991981;28;20260;-74
2024/01/02 06:33:24;;;;;;;1999.90;999.90;;;11.50;99.90;;;;;;4992042;28;20177;-74
2024/01/02 06:35:50;;;;;;;1999.90;999.90;;;11.50;99.90;;;;;;4992167;28;20183;-75
2024/01/02 06:38:16;;;;;;;1999.90;999.90;;;11.50;99.90;;;;;;4992976;28;20416;-75
2024/01/02 06:40:42;;;;;;;1999.90;999.90;;;11.60;99.90;;;;;;4992856;28;20748;-75
2024/01/02 06:43:07;;;;;;;1999.90;999.90;;;11.60;99.90;;;;;;4992538;28;20520;-75
2024/01/02 06:45:33;;;;;;;1999.90;999.90;;;11.60;99.90;;;;;;4992235;28;20173;-75
2024/01/02 06:47:58;;;;;;;1999.90;999.90;;;11.60;99.90;;;;;;4992812;28;20260;-75
2024/01/02 06:50:24;;;;;;;1999.90;999.90;;;11.70;99.90;;;;;;4992839;28;20785;-75
2024/01/02 06:52:49;;;;;;;1999.90;999.90;;;11.70;99.90;;;;;;4992394;28;20196;-75
2024/01/02 06:55:15;;;;;;;1999.90;999.90;;;11.70;99.90;;;;;;4992495;28;20178;-75
2024/01/02 06:57:41;;;;;;;1999.90;999.90;;;11.70;99.90;;;;;;4992547;28;20177;-75
2024/01/02 07:00:07;;;;;;;1999.90;999.90;;;11.80;99.90;;;;;;4992631;28;20165;-75
2024/01/02 07:02:33;;;;;;;1999.90;999.90;;;11.80;99.90;;;;;;4991479;28;20213;-74
2024/01/02 07:04:59;;;;;;;1999.90;999.90;;;11.80;99.90;;;;;;4978773;28;20445;-74
2024/01/02 07:07:25;;;;;;;1999.90;999.90;;;11.90;99.90;;;;;;4989206;28;20413;-74
2024/01/02 07:09:50;;;;;;;1999.90;999.90;;;11.90;99.90;;;;;;4979778;28;20434;-74
2024/01/02 07:12:17;;;;;;;1999.90;999.90;;;11.90;99.90;;;;;;4979540;28;20777;-74
2024/01/02 07:14:43;;;;;;;1999.90;999.90;;;11.90;99.90;;;;;;4991648;28;20174;-74
2024/01/02 07:17:08;;;;;;;1999.90;999.90;;;11.90;99.90;;;;;;4991840;28;20812;-73
2024/01/02 07:19:34;;;;;;;1999.90;999.90;;;11.90;99.90;;;;;;4991709;28;20412;-73
2024/01/02 07:22:00;;;;;;;1999.90;999.90;;;11.90;99.90;;;;;;4993969;28;20579;-73
2024/01/02 07:24:25;;;;;;;1999.90;999.90;;;11.90;99.90;;;;;;4994485;28;20196;-74
2024/01/02 07:26:51;;;;;;;1999.90;999.90;;;11.90;99.90;;;;;;4987822;28;20172;-74
2024/01/02 07:29:16;;;;;;;1999.90;999.90;;;11.90;99.90;;;;;;4995071;28;20173;-73
2024/01/02 07:31:42;;;;;;;1999.90;999.90;;;11.90;99.90;;;;;;4994840;28;20248;-74
2024/01/02 07:34:08;;;;;;;1999.90;999.90;;;12.00;99.90;;;;;;4994998;28;20260;-74
2024/01/02 07:36:33;;;;;;;1999.90;999.90;;;12.00;99.90;;;;;;4994967;28;20166;-74
2024/01/02 07:38:59;;;;;;;1999.90;999.90;;;12.00;99.90;;;;;;4995109;28;20178;-73
2024/01/02 07:41:24;;;;;;;1999.90;999.90;;;12.00;99.90;;;;;;4994318;28;20236;-74
2024/01/02 07:43:50;;;;;;;1999.90;999.90;;;12.00;99.90;;;;;;4987070;28;20582;-74
2024/01/02 07:46:16;;;;;;;1999.90;999.90;;;12.00;99.90;;;;;;4994904;28;20173;-73
2024/01/02 07:48:42;;;;;;;1999.90;999.90;;;12.00;99.90;;;;;;4986794;28;20178;-74
2024/01/02 07:51:08;;;;;;;1999.90;999.90;;;12.10;99.90;;;;;;4994718;28;20432;-73
2024/01/02 07:53:33;;;;;;;1999.90;999.90;;;12.20;99.90;;;;;;4984866;28;20175;-74
2024/01/02 07:56:01;;;;;;;1999.90;999.90;;;12.20;99.90;;;;;;4988258;28;20409;-74
2024/01/02 07:58:27;;;;;;;1999.90;999.90;;;12.20;99.90;;;;;;4994550;28;20201;-74
2024/01/02 08:00:52;;;;;;;1999.90;999.90;;;12.20;99.90;;;;;;4994401;28;20446;-73
2024/01/02 08:03:18;;;;;;;1999.90;999.90;;;12.20;99.90;;;;;;4994356;28;20167;-73
2024/01/02 08:05:43;;;;;;;1999.90;999.90;;;12.20;99.90;;;;;;4994496;28;20174;-74
2024/01/02 08:08:09;;;;;;;1999.90;999.90;;;12.20;99.90;;;;;;4994532;28;20624;-74
2024/01/02 08:10:35;;;;;;;1999.90;999.90;;;12.20;99.90;;;;;;4991321;28;20175;-75
2024/01/02 08:13:00;;;;;;;1999.90;999.90;;;12.20;99.90;;;;;;4994269;28;20233;-75
2024/01/02 08:15:26;;;;;;;1999.90;999.90;;;12.10;99.90;;;;;;4994687;28;20679;-75
2024/01/02 08:17:51;;;;;;;1999.90;999.90;;;12.20;99.90;;;;;;4994809;28;20180;-75
2024/01/02 08:20:17;;;;;;;1999.90;999.90;;;12.10;99.90;;;;;;4994624;28;20544;-75
2024/01/02 08:22:43;;;;;;;1999.90;999.90;;;12.10;99.90;;;;;;4994333;28;20289;-75
2024/01/02 08:25:08;;;;;;;1999.90;999.90;;;12.10;99.90;;;;;;4994582;28;20161;-74
2024/01/02 08:27:35;;;;;;;1999.90;999.90;;;12.10;99.90;;;;;;4995005;28;20171;-75
2024/01/02 08:30:01;;;;;;;1999.90;999.90;;;12.20;99.90;;;;;;4994237;28;20165;-75
2024/01/02 08:32:28;;;;;;;1999.90;999.90;;;12.10;99.90;;;;;;4994262;28;20509;-75
2024/01/02 08:34:54;;;;;;;1999.90;999.90;;;12.20;99.90;;;;;;4994496;28;20174;-75
2024/01/02 08:37:19;;;;;;;1999.90;999.90;;;12.20;99.90;;;;;;4994338;28;20455;-75
2024/01/02 08:39:45;;;;;;;1999.90;999.90;;;12.20;99.90;;;;;;4994470;28;20252;-75
2024/01/02 08:42:11;;;;;;;1999.90;999.90;;;12.20;99.90;;;;;;4993876;28;20626;-74
2024/01/02 08:44:36;;;;;;;1999.90;999.90;;;12.30;99.90;;;;;;4994080;28;20169;-75
2024/01/02 08:47:02;;;;;;;1999.90;999.90;;;12.30;99.90;;;;;;4994272;28;20167;-75
2024/01/02 08:49:27;;;;;;;1999.90;999.90;;;12.30;99.90;;;;;;4994273;28;20210;-75
2024/01/02 08:51:53;;;;;;;1999.90;999.90;;;12.30;99.90;;;;;;4993893;28;20194;-75
2024/01/02 08:54:19;;;;;;;1999.90;999.90;;;12.30;99.90;;;;;;4993800;28;20179;-75
2024/01/02 08:56:44;;;;;;;1999.90;999.90;;;12.30;99.90;;;;;;4993868;28;20174;-74
2024/01/02 08:59:10;;;;;;;1999.90;999.90;;;12.40;99.90;;;;;;4993565;28;20666;-74
2024/01/02 09:01:35;;;;;;;1999.90;999.90;;;12.30;99.90;;;;;;4993179;28;20571;-74
2024/01/02 09:04:01;;;;;;;1999.90;999.90;;;12.40;99.90;;;;;;4993477;28;20162;-73
2024/01/02 09:06:27;;;;;;;1999.90;999.90;;;12.40;99.90;;;;;;4993586;28;20173;-74
2024/01/02 09:08:52;;;;;;;1999.90;999.90;;;12.40;99.90;;;;;;4993474;28;20173;-74
2024/01/02 09:11:19;;;;;;;1999.90;999.90;;;12.40;99.90;;;;;;4993147;28;20217;-74
2024/01/02 09:13:44;;;;;;;1999.90;999.90;;;12.40;99.90;;;;;;4993096;28;20173;-74
2024/01/02 09:16:10;;;;;;;1999.90;999.90;;;12.50;99.90;;;;;;4992981;28;20745;-73
2024/01/02 09:18:35;;;;;;;1999.90;999.90;;;12.50;99.90;;;;;;4993265;28;20209;-74
2024/01/02 09:21:01;;;;;;;1999.90;999.90;;;12.60;99.90;;;;;;4993170;28;20624;-74
2024/01/02 09:23:27;;;;;;;1999.90;999.90;;;12.50;99.90;;;;;;4988995;28;20173;-73
2024/01/02 09:25:57;;;;;;;1999.90;999.90;;;12.50;99.90;;;;;;4992435;28;20633;-74
2024/01/02 09:28:22;;;;;;;1999.90;999.90;;;12.50;99.90;;;;;;4993060;28;20162;-74
2024/01/02 09:30:48;;;;;;;1999.90;999.90;;;12.50;99.90;;;;;;4992980;28;20415;-74
2024/01/02 09:33:14;;;;;;;1999.90;999.90;;;12.50;99.90;;;;;;4992844;28;20546;-74
2024/01/02 09:35:42;;;;;;;1999.90;999.90;;;12.50;99.90;;;;;;4993033;28;20173;-74
2024/01/02 09:38:07;;;;;;;1999.90;999.90;;;12.50;99.90;;;;;;4992997;28;20174;-74
2024/01/02 09:40:54;;;;;;;1999.90;999.90;;;12.50;99.90;;;;;;4992846;28;20917;-73
2024/01/02 09:43:43;;;;;;;1999.90;999.90;;;12.60;99.90;;;;;;4992340;28;20160;-74
2024/01/02 09:46:21;;;;;;;1999.90;999.90;;;12.60;99.90;;;;;;4990572;28;20420;-73
2024/01/02 09:49:13;;;;;;;1999.90;999.90;;;12.60;99.90;;;;;;4986888;28;20423;-74
2024/01/02 09:52:07;;;;;;;1999.90;999.90;;;12.70;99.90;;;;;;4987648;28;20450;-74
2024/01/02 09:54:54;;;;;;;1999.90;999.90;;;12.70;99.90;;;;;;4967680;28;20452;-74
2024/01/02 09:57:29;;;;;;;1999.90;999.90;;;12.70;99.90;;;;;;4990621;28;20445;-74
2024/01/02 10:00:06;;;;;;;1999.90;999.90;;;12.80;99.90;;;;;;4990520;28;20424;-74
2024/01/02 10:03:07;;;;;;;1999.90;999.90;;;12.80;99.90;;;;;;4992199;28;21008;-74
2024/01/02 10:05:57;;;;;;;1999.90;999.90;;;12.80;99.90;;;;;;4992579;28;20410;-73
2024/01/02 10:08:37;;;;;;;1999.90;999.90;;;12.80;99.90;;;;;;4991353;28;20428;-74
2024/01/02 10:11:20;;;;;;;1999.90;999.90;;;12.90;99.90;;;;;;4990078;28;20455;-74
2024/01/02 10:14:06;;;;;;;1999.90;999.90;;;12.90;99.90;;;;;;4991229;28;20448;-74
2024/01/02 10:16:46;;;;;;;1999.90;999.90;;;12.90;99.90;;;;;;4991739;28;20426;-74
2024/01/02 10:19:25;;;;;;;1999.90;999.90;;;12.90;99.90;;;;;;4990467;28;20874;-74
2024/01/02 10:22:02;;;;;;;1999.90;999.90;;;12.80;99.90;;;;;;4989044;28;20464;-74
2024/01/02 10:24:38;;;;;;;1999.90;999.90;;;12.90;99.90;;;;;;4990949;28;20901;-72
2024/01/02 10:27:14;;;;;;;1999.90;999.90;;;12.90;99.90;;;;;;4991553;28;20904;-74
2024/01/02 10:29:55;;;;;;;1999.90;999.90;;;12.90;99.90;;;;;;4991428;28;20511;-73
2024/01/02 10:32:33;;;;;;;1999.90;999.90;;;12.90;99.90;;;;;;4991505;28;20850;-74
2024/01/02 10:35:11;;;;;;;1999.90;999.90;;;12.90;99.90;;;;;;4984735;28;20407;-74
2024/01/02 10:38:04;;;;;;;1999.90;999.90;;;12.80;99.90;;;;;;4992520;28;20451;-75
2024/01/02 10:40:30;;;;;;;1999.90;999.90;;;12.70;99.90;;;;;;5000369;28;20436;-74
2024/01/02 10:43:27;;;;;;;1999.90;999.90;;;12.60;99.90;;;;;;4994018;28;20433;-74
2024/01/02 10:46:02;;;;;;;1999.90;999.90;;;12.60;99.90;;;;;;4991968;28;20179;-75
2024/01/02 10:48:58;;;;;;;1999.90;999.90;;;12.50;99.90;;;;;;4996648;28;20434;-75
2024/01/02 10:51:41;;;;;;;1999.90;999.90;;;12.30;99.90;;;;;;4992372;28;20426;-75
2024/01/02 10:54:24;;;;;;;1999.90;999.90;;;12.30;99.90;;;;;;4991903;28;20411;-75
2024/01/02 10:57:01;;;;;;;1999.90;999.90;;;12.10;99.90;;;;;;4991477;28;20499;-74
2024/01/02 10:59:35;;;;;;;1999.90;999.90;;;12.00;99.90;;;;;;4995221;28;20500;-76
2024/01/02 11:02:40;;;;;;;1999.90;999.90;;;11.90;99.90;;;;;;4994736;28;20463;-76
2024/01/02 11:05:23;;;;;;;1999.90;999.90;;;11.80;99.90;;;;;;4987879;28;20825;-75
2024/01/02 11:08:18;;;;;;;1999.90;999.90;;;11.70;99.90;;;;;;4994426;28;20873;-75
2024/01/02 11:11:07;;;;;;;1999.90;999.90;;;11.70;99.90;;;;;;4985243;28;20523;-75
2024/01/02 11:13:38;;;;;;;1999.90;999.90;;;11.70;99.90;;;;;;4995565;28;20780;-75
2024/01/02 11:16:11;;;;;;;1999.90;999.90;;;11.70;99.90;;;;;;4994379;28;20484;-76
2024/01/02 11:18:40;;;;;;;1999.90;999.90;;;11.70;99.90;;;;;;4993574;28;20424;-76
2024/01/02 11:21:28;;;;;;;1999.90;999.90;;;11.70;99.90;;;;;;4995569;28;20822;-76
2024/01/02 11:23:56;;;;;;;1999.90;999.90;;;11.70;99.90;;;;;;4994861;28;20416;-75
2024/01/02 11:26:40;;;;;;;1999.90;999.90;;;11.70;99.90;;;;;;4995175;28;20817;-75
2024/01/02 11:29:18;;;;;;;1999.90;999.90;;;11.60;99.90;;;;;;4989686;28;20409;-75
2024/01/02 11:31:48;;;;;;;1999.90;999.90;;;11.60;99.90;;;;;;4995823;28;20538;-77
2024/01/02 11:34:43;;;;;;;1999.90;999.90;;;11.60;99.90;;;;;;4995208;28;20928;-75
2024/01/02 11:37:16;;;;;;;1999.90;999.90;;;11.60;99.90;;;;;;4994136;28;20416;-75
2024/01/02 11:39:48;;;;;;;1999.90;999.90;;;11.60;99.90;;;;;;4994979;28;20428;-75
2024/01/02 11:42:37;;;;;;;1999.90;999.90;;;11.50;99.90;;;;;;4992163;28;20472;-75
2024/01/02 11:45:08;;;;;;;1999.90;999.90;;;11.60;99.90;;;;;;4990474;28;20424;-75
2024/01/02 11:47:45;;;;;;;1999.90;999.90;;;11.50;99.90;;;;;;5001935;28;20949;-75
2024/01/02 11:50:13;;;;;;;1999.90;999.90;;;11.50;99.90;;;;;;4994129;28;20486;-75
2024/01/02 11:53:05;;;;;;;1999.90;999.90;;;11.40;99.90;;;;;;4994104;28;20930;-75
2024/01/02 11:55:55;;;;;;;1999.90;999.90;;;11.30;99.90;;;;;;4949228;28;20930;-75
2024/01/02 11:58:36;;;;;;;1999.90;999.90;;;11.20;99.90;;;;;;4994679;28;20412;-75
2024/01/02 12:14:24;;;;;;;1999.90;999.90;;;10.90;99.90;;;;;;4206073;22;20488;-75
2024/01/02 12:16:51;;;;;;;1999.90;999.90;;;10.80;99.90;;;;;;5033357;28;20421;-74
2024/01/02 12:19:20;;;;;;;1999.90;999.90;;;10.90;99.90;;;;;;5033542;28;20415;-75
2024/01/02 12:21:47;;;;;;;1999.90;999.90;;;10.80;99.90;;;;;;5032743;28;20464;-74
2024/01/02 12:24:14;;;;;;;1999.90;999.90;;;10.70;99.90;;;;;;5033299;28;20411;-74